sensor_id;sensor_type;location;lat;lon;timestamp;P1;durP1;ratioP1;P2;durP2;ratioP2
76552;SDS011;65395;53.168;18.156;2024-03-08T00:02:18;23.50;;;11.10;;
76552;SDS011;65395;53.168;18.156;2024-03-08T00:04:45;21.70;;;10.00;;
76552;SDS011;65395;53.168;18.156;2024-03-08T00:07:12;23.50;;;10.40;;
76552;SDS011;65395;53.168;18.156;2024-03-08T00:09:39;24.30;;;10.50;;
76552;SDS011;65395;53.168;18.156;2024-03-08T00:12:06;24.40;;;11.60;;
76552;SDS011;65395;53.168;18.156;2024-03-08T00:14:33;22.90;;;11.00;;
76552;SDS011;65395;53.168;18.156;2024-03-08T00:17:03;24.90;;;10.90;;
76552;SDS011;65395;53.168;18.156;2024-03-08T00:19:30;24.50;;;11.10;;
76552;SDS011;65395;53.168;18.156;2024-03-08T00:21:57;27.60;;;11.50;;
76552;SDS011;65395;53.168;18.156;2024-03-08T00:24:24;24.50;;;11.50;;
76552;SDS011;65395;53.168;18.156;2024-03-08T00:26:51;26.10;;;11.90;;
76552;SDS011;65395;53.168;18.156;2024-03-08T00:29:20;25.40;;;11.80;;
76552;SDS011;65395;53.168;18.156;2024-03-08T00:31:48;26.90;;;11.10;;
76552;SDS011;65395;53.168;18.156;2024-03-08T00:34:15;25.60;;;11.00;;
76552;SDS011;65395;53.168;18.156;2024-03-08T00:36:42;25.40;;;11.10;;
76552;SDS011;65395;53.168;18.156;2024-03-08T00:39:10;25.90;;;12.50;;
76552;SDS011;65395;53.168;18.156;2024-03-08T00:41:38;25.70;;;12.30;;
76552;SDS011;65395;53.168;18.156;2024-03-08T00:44:05;30.50;;;12.20;;
76552;SDS011;65395;53.168;18.156;2024-03-08T00:46:32;31.70;;;13.20;;
76552;SDS011;65395;53.168;18.156;2024-03-08T00:49:00;30.30;;;13.10;;
76552;SDS011;65395;53.168;18.156;2024-03-08T00:51:27;27.90;;;13.20;;
76552;SDS011;65395;53.168;18.156;2024-03-08T00:53:54;27.80;;;12.80;;
76552;SDS011;65395;53.168;18.156;2024-03-08T00:56:22;27.70;;;12.70;;
76552;SDS011;65395;53.168;18.156;2024-03-08T00:58:53;26.00;;;11.70;;
76552;SDS011;65395;53.168;18.156;2024-03-08T01:01:20;33.50;;;12.80;;
76552;SDS011;65395;53.168;18.156;2024-03-08T01:03:47;29.00;;;12.80;;
76552;SDS011;65395;53.168;18.156;2024-03-08T01:06:15;31.10;;;13.00;;
76552;SDS011;65395;53.168;18.156;2024-03-08T01:08:42;29.50;;;13.50;;
76552;SDS011;65395;53.168;18.156;2024-03-08T01:11:09;34.60;;;14.10;;
76552;SDS011;65395;53.168;18.156;2024-03-08T01:13:36;29.50;;;13.70;;
76552;SDS011;65395;53.168;18.156;2024-03-08T01:16:03;30.20;;;12.80;;
76552;SDS011;65395;53.168;18.156;2024-03-08T01:18:30;29.80;;;13.30;;
76552;SDS011;65395;53.168;18.156;2024-03-08T01:20:57;28.60;;;12.90;;
76552;SDS011;65395;53.168;18.156;2024-03-08T01:23:24;29.00;;;12.50;;
76552;SDS011;65395;53.168;18.156;2024-03-08T01:25:51;31.20;;;13.30;;
76552;SDS011;65395;53.168;18.156;2024-03-08T01:28:23;29.60;;;12.70;;
76552;SDS011;65395;53.168;18.156;2024-03-08T01:30:51;28.10;;;12.10;;
76552;SDS011;65395;53.168;18.156;2024-03-08T01:33:23;30.20;;;13.20;;
76552;SDS011;65395;53.168;18.156;2024-03-08T01:35:52;28.00;;;12.70;;
76552;SDS011;65395;53.168;18.156;2024-03-08T01:38:20;31.20;;;13.30;;
76552;SDS011;65395;53.168;18.156;2024-03-08T01:40:47;27.80;;;13.10;;
76552;SDS011;65395;53.168;18.156;2024-03-08T01:43:25;29.80;;;13.90;;
76552;SDS011;65395;53.168;18.156;2024-03-08T01:45:54;31.40;;;13.80;;
76552;SDS011;65395;53.168;18.156;2024-03-08T01:48:25;28.10;;;13.00;;
76552;SDS011;65395;53.168;18.156;2024-03-08T01:50:52;31.50;;;13.80;;
76552;SDS011;65395;53.168;18.156;2024-03-08T01:53:21;26.50;;;12.70;;
76552;SDS011;65395;53.168;18.156;2024-03-08T01:55:49;32.50;;;13.80;;
76552;SDS011;65395;53.168;18.156;2024-03-08T01:58:18;33.00;;;13.70;;
76552;SDS011;65395;53.168;18.156;2024-03-08T02:00:48;30.60;;;14.20;;
76552;SDS011;65395;53.168;18.156;2024-03-08T02:03:16;33.80;;;14.50;;
76552;SDS011;65395;53.168;18.156;2024-03-08T02:05:43;31.60;;;13.40;;
76552;SDS011;65395;53.168;18.156;2024-03-08T02:08:10;32.80;;;14.40;;
76552;SDS011;65395;53.168;18.156;2024-03-08T02:10:41;32.20;;;13.40;;
76552;SDS011;65395;53.168;18.156;2024-03-08T02:13:08;29.40;;;13.70;;
76552;SDS011;65395;53.168;18.156;2024-03-08T02:18:21;30.60;;;13.20;;
76552;SDS011;65395;53.168;18.156;2024-03-08T02:20:50;28.70;;;12.60;;
76552;SDS011;65395;53.168;18.156;2024-03-08T02:23:19;25.60;;;12.60;;
76552;SDS011;65395;53.168;18.156;2024-03-08T02:25:47;26.60;;;12.00;;
76552;SDS011;65395;53.168;18.156;2024-03-08T02:28:14;27.00;;;12.80;;
76552;SDS011;65395;53.168;18.156;2024-03-08T02:30:41;24.80;;;12.40;;
76552;SDS011;65395;53.168;18.156;2024-03-08T02:33:08;28.70;;;12.90;;
76552;SDS011;65395;53.168;18.156;2024-03-08T02:35:36;27.90;;;12.60;;
76552;SDS011;65395;53.168;18.156;2024-03-08T02:38:03;28.60;;;12.40;;
76552;SDS011;65395;53.168;18.156;2024-03-08T02:40:30;29.30;;;12.60;;
76552;SDS011;65395;53.168;18.156;2024-03-08T02:42:58;25.20;;;12.10;;
76552;SDS011;65395;53.168;18.156;2024-03-08T02:45:25;26.40;;;12.00;;
76552;SDS011;65395;53.168;18.156;2024-03-08T02:47:52;27.90;;;12.90;;
76552;SDS011;65395;53.168;18.156;2024-03-08T02:50:19;27.20;;;12.70;;
76552;SDS011;65395;53.168;18.156;2024-03-08T02:52:45;28.80;;;12.90;;
76552;SDS011;65395;53.168;18.156;2024-03-08T02:55:12;26.20;;;12.30;;
76552;SDS011;65395;53.168;18.156;2024-03-08T02:57:42;27.40;;;12.90;;
76552;SDS011;65395;53.168;18.156;2024-03-08T03:00:13;26.90;;;11.60;;
76552;SDS011;65395;53.168;18.156;2024-03-08T03:02:42;26.40;;;12.20;;
76552;SDS011;65395;53.168;18.156;2024-03-08T03:05:09;28.90;;;12.90;;
76552;SDS011;65395;53.168;18.156;2024-03-08T03:07:37;31.80;;;13.10;;
76552;SDS011;65395;53.168;18.156;2024-03-08T03:10:05;28.70;;;12.60;;
76552;SDS011;65395;53.168;18.156;2024-03-08T03:12:33;30.30;;;13.60;;
76552;SDS011;65395;53.168;18.156;2024-03-08T03:15:00;28.20;;;13.30;;
76552;SDS011;65395;53.168;18.156;2024-03-08T03:17:28;32.40;;;14.10;;
76552;SDS011;65395;53.168;18.156;2024-03-08T03:19:54;31.70;;;14.20;;
76552;SDS011;65395;53.168;18.156;2024-03-08T03:22:22;33.60;;;14.70;;
76552;SDS011;65395;53.168;18.156;2024-03-08T03:24:49;35.60;;;15.60;;
76552;SDS011;65395;53.168;18.156;2024-03-08T03:27:17;33.10;;;15.10;;
76552;SDS011;65395;53.168;18.156;2024-03-08T03:29:46;33.20;;;15.80;;
76552;SDS011;65395;53.168;18.156;2024-03-08T03:32:13;40.30;;;16.60;;
76552;SDS011;65395;53.168;18.156;2024-03-08T03:34:40;37.90;;;15.70;;
76552;SDS011;65395;53.168;18.156;2024-03-08T03:37:10;39.50;;;17.00;;
76552;SDS011;65395;53.168;18.156;2024-03-08T03:39:39;44.20;;;17.00;;
76552;SDS011;65395;53.168;18.156;2024-03-08T03:42:15;36.60;;;16.10;;
76552;SDS011;65395;53.168;18.156;2024-03-08T03:44:46;40.90;;;17.40;;
76552;SDS011;65395;53.168;18.156;2024-03-08T03:47:14;46.00;;;17.60;;
76552;SDS011;65395;53.168;18.156;2024-03-08T03:49:42;41.80;;;16.60;;
76552;SDS011;65395;53.168;18.156;2024-03-08T03:52:09;41.00;;;17.40;;
76552;SDS011;65395;53.168;18.156;2024-03-08T03:54:36;47.90;;;19.00;;
76552;SDS011;65395;53.168;18.156;2024-03-08T03:57:03;42.50;;;17.30;;
76552;SDS011;65395;53.168;18.156;2024-03-08T03:59:30;45.90;;;18.30;;
76552;SDS011;65395;53.168;18.156;2024-03-08T04:01:57;48.30;;;18.80;;
76552;SDS011;65395;53.168;18.156;2024-03-08T04:04:24;41.60;;;18.00;;
76552;SDS011;65395;53.168;18.156;2024-03-08T04:06:51;42.60;;;18.50;;
76552;SDS011;65395;53.168;18.156;2024-03-08T04:09:18;51.10;;;21.30;;
76552;SDS011;65395;53.168;18.156;2024-03-08T04:11:49;48.90;;;19.50;;
76552;SDS011;65395;53.168;18.156;2024-03-08T04:14:19;49.60;;;19.70;;
76552;SDS011;65395;53.168;18.156;2024-03-08T04:16:46;43.70;;;19.80;;
76552;SDS011;65395;53.168;18.156;2024-03-08T04:19:14;48.30;;;18.90;;
76552;SDS011;65395;53.168;18.156;2024-03-08T04:21:41;56.70;;;21.20;;
76552;SDS011;65395;53.168;18.156;2024-03-08T04:24:08;48.70;;;19.00;;
76552;SDS011;65395;53.168;18.156;2024-03-08T04:26:35;44.20;;;19.30;;
76552;SDS011;65395;53.168;18.156;2024-03-08T04:29:02;51.60;;;19.20;;
76552;SDS011;65395;53.168;18.156;2024-03-08T04:31:29;50.10;;;20.50;;
76552;SDS011;65395;53.168;18.156;2024-03-08T04:33:57;50.10;;;21.70;;
76552;SDS011;65395;53.168;18.156;2024-03-08T04:36:24;48.50;;;20.80;;
76552;SDS011;65395;53.168;18.156;2024-03-08T04:38:51;54.10;;;21.00;;
76552;SDS011;65395;53.168;18.156;2024-03-08T04:41:18;48.10;;;19.30;;
76552;SDS011;65395;53.168;18.156;2024-03-08T04:43:45;55.60;;;20.30;;
76552;SDS011;65395;53.168;18.156;2024-03-08T04:46:11;57.70;;;21.60;;
76552;SDS011;65395;53.168;18.156;2024-03-08T04:48:38;52.20;;;20.90;;
76552;SDS011;65395;53.168;18.156;2024-03-08T04:51:05;54.60;;;22.30;;
76552;SDS011;65395;53.168;18.156;2024-03-08T04:53:32;54.60;;;20.50;;
76552;SDS011;65395;53.168;18.156;2024-03-08T04:56:00;56.80;;;20.50;;
76552;SDS011;65395;53.168;18.156;2024-03-08T04:58:33;59.00;;;21.30;;
76552;SDS011;65395;53.168;18.156;2024-03-08T05:01:02;53.80;;;22.30;;
76552;SDS011;65395;53.168;18.156;2024-03-08T05:03:29;56.20;;;21.40;;
76552;SDS011;65395;53.168;18.156;2024-03-08T05:05:56;54.70;;;21.20;;
76552;SDS011;65395;53.168;18.156;2024-03-08T05:08:23;58.60;;;22.40;;
76552;SDS011;65395;53.168;18.156;2024-03-08T05:10:50;55.60;;;21.10;;
76552;SDS011;65395;53.168;18.156;2024-03-08T05:13:17;54.30;;;21.80;;
76552;SDS011;65395;53.168;18.156;2024-03-08T05:15:48;49.80;;;20.70;;
76552;SDS011;65395;53.168;18.156;2024-03-08T05:18:16;51.10;;;20.60;;
76552;SDS011;65395;53.168;18.156;2024-03-08T05:20:43;53.10;;;22.20;;
76552;SDS011;65395;53.168;18.156;2024-03-08T05:23:10;57.40;;;21.80;;
76552;SDS011;65395;53.168;18.156;2024-03-08T05:25:37;56.00;;;22.30;;
76552;SDS011;65395;53.168;18.156;2024-03-08T05:28:04;55.70;;;21.00;;
76552;SDS011;65395;53.168;18.156;2024-03-08T05:30:31;57.40;;;21.60;;
76552;SDS011;65395;53.168;18.156;2024-03-08T05:32:58;55.50;;;21.50;;
76552;SDS011;65395;53.168;18.156;2024-03-08T05:35:25;54.30;;;22.50;;
76552;SDS011;65395;53.168;18.156;2024-03-08T05:37:52;55.70;;;20.70;;
76552;SDS011;65395;53.168;18.156;2024-03-08T05:40:19;53.90;;;21.50;;
76552;SDS011;65395;53.168;18.156;2024-03-08T05:42:46;54.70;;;20.70;;
76552;SDS011;65395;53.168;18.156;2024-03-08T05:45:13;53.60;;;21.50;;
76552;SDS011;65395;53.168;18.156;2024-03-08T05:47:41;52.70;;;21.40;;
76552;SDS011;65395;53.168;18.156;2024-03-08T05:50:08;55.30;;;21.80;;
76552;SDS011;65395;53.168;18.156;2024-03-08T05:52:37;52.20;;;21.00;;
76552;SDS011;65395;53.168;18.156;2024-03-08T05:55:05;52.00;;;22.60;;
76552;SDS011;65395;53.168;18.156;2024-03-08T05:57:34;44.60;;;20.10;;
76552;SDS011;65395;53.168;18.156;2024-03-08T06:00:01;51.50;;;20.10;;
76552;SDS011;65395;53.168;18.156;2024-03-08T06:02:27;47.90;;;19.80;;
76552;SDS011;65395;53.168;18.156;2024-03-08T06:04:54;46.20;;;18.90;;
76552;SDS011;65395;53.168;18.156;2024-03-08T06:07:21;48.40;;;20.00;;
76552;SDS011;65395;53.168;18.156;2024-03-08T06:09:48;46.30;;;20.30;;
76552;SDS011;65395;53.168;18.156;2024-03-08T06:12:15;45.70;;;19.40;;
76552;SDS011;65395;53.168;18.156;2024-03-08T06:14:45;44.50;;;20.00;;
76552;SDS011;65395;53.168;18.156;2024-03-08T06:17:12;49.50;;;20.00;;
76552;SDS011;65395;53.168;18.156;2024-03-08T06:19:39;51.40;;;20.20;;
76552;SDS011;65395;53.168;18.156;2024-03-08T06:22:06;49.90;;;20.60;;
76552;SDS011;65395;53.168;18.156;2024-03-08T06:24:33;45.30;;;19.90;;
76552;SDS011;65395;53.168;18.156;2024-03-08T06:27:02;43.90;;;19.40;;
76552;SDS011;65395;53.168;18.156;2024-03-08T06:29:30;44.80;;;19.30;;
76552;SDS011;65395;53.168;18.156;2024-03-08T06:31:57;43.20;;;18.30;;
76552;SDS011;65395;53.168;18.156;2024-03-08T06:34:24;45.50;;;19.60;;
76552;SDS011;65395;53.168;18.156;2024-03-08T06:36:51;47.10;;;19.80;;
76552;SDS011;65395;53.168;18.156;2024-03-08T06:39:18;47.30;;;19.40;;
76552;SDS011;65395;53.168;18.156;2024-03-08T06:41:45;43.90;;;18.30;;
76552;SDS011;65395;53.168;18.156;2024-03-08T06:44:12;42.80;;;18.10;;
76552;SDS011;65395;53.168;18.156;2024-03-08T06:46:39;43.50;;;18.70;;
76552;SDS011;65395;53.168;18.156;2024-03-08T06:49:06;38.10;;;18.00;;
76552;SDS011;65395;53.168;18.156;2024-03-08T06:51:35;41.70;;;18.50;;
76552;SDS011;65395;53.168;18.156;2024-03-08T06:54:02;41.70;;;18.90;;
76552;SDS011;65395;53.168;18.156;2024-03-08T06:56:35;42.40;;;18.50;;
76552;SDS011;65395;53.168;18.156;2024-03-08T06:59:01;42.90;;;18.00;;
76552;SDS011;65395;53.168;18.156;2024-03-08T07:01:29;41.00;;;18.10;;
76552;SDS011;65395;53.168;18.156;2024-03-08T07:03:58;49.30;;;19.20;;
76552;SDS011;65395;53.168;18.156;2024-03-08T07:06:25;45.20;;;18.70;;
76552;SDS011;65395;53.168;18.156;2024-03-08T07:08:52;45.30;;;18.40;;
76552;SDS011;65395;53.168;18.156;2024-03-08T07:11:19;40.00;;;17.70;;
76552;SDS011;65395;53.168;18.156;2024-03-08T07:13:46;38.20;;;16.90;;
76552;SDS011;65395;53.168;18.156;2024-03-08T07:16:13;38.20;;;16.70;;
76552;SDS011;65395;53.168;18.156;2024-03-08T07:18:40;41.40;;;19.20;;
76552;SDS011;65395;53.168;18.156;2024-03-08T07:21:10;41.80;;;17.90;;
76552;SDS011;65395;53.168;18.156;2024-03-08T07:23:37;45.80;;;20.00;;
76552;SDS011;65395;53.168;18.156;2024-03-08T07:26:15;41.50;;;18.70;;
76552;SDS011;65395;53.168;18.156;2024-03-08T07:28:43;39.70;;;16.90;;
76552;SDS011;65395;53.168;18.156;2024-03-08T07:31:09;39.70;;;17.10;;
76552;SDS011;65395;53.168;18.156;2024-03-08T07:33:56;44.10;;;17.90;;
76552;SDS011;65395;53.168;18.156;2024-03-08T07:36:25;42.40;;;17.80;;
76552;SDS011;65395;53.168;18.156;2024-03-08T07:38:52;41.10;;;17.20;;
76552;SDS011;65395;53.168;18.156;2024-03-08T07:41:19;38.20;;;16.40;;
76552;SDS011;65395;53.168;18.156;2024-03-08T07:43:46;37.70;;;17.60;;
76552;SDS011;65395;53.168;18.156;2024-03-08T07:46:13;31.70;;;15.10;;
76552;SDS011;65395;53.168;18.156;2024-03-08T07:48:40;38.20;;;16.80;;
76552;SDS011;65395;53.168;18.156;2024-03-08T07:51:07;36.20;;;16.80;;
76552;SDS011;65395;53.168;18.156;2024-03-08T07:53:35;37.80;;;16.80;;
76552;SDS011;65395;53.168;18.156;2024-03-08T07:56:02;35.60;;;15.80;;
76552;SDS011;65395;53.168;18.156;2024-03-08T07:58:31;35.40;;;16.80;;
76552;SDS011;65395;53.168;18.156;2024-03-08T08:00:58;34.80;;;16.10;;
76552;SDS011;65395;53.168;18.156;2024-03-08T08:03:25;36.00;;;17.20;;
76552;SDS011;65395;53.168;18.156;2024-03-08T08:05:52;36.80;;;17.10;;
76552;SDS011;65395;53.168;18.156;2024-03-08T08:08:20;38.10;;;17.30;;
76552;SDS011;65395;53.168;18.156;2024-03-08T08:10:47;35.30;;;16.80;;
76552;SDS011;65395;53.168;18.156;2024-03-08T08:13:13;37.50;;;17.00;;
76552;SDS011;65395;53.168;18.156;2024-03-08T08:15:42;34.30;;;16.00;;
76552;SDS011;65395;53.168;18.156;2024-03-08T08:18:09;39.30;;;16.70;;
76552;SDS011;65395;53.168;18.156;2024-03-08T08:20:36;42.30;;;16.90;;
76552;SDS011;65395;53.168;18.156;2024-03-08T08:23:03;37.40;;;16.90;;
76552;SDS011;65395;53.168;18.156;2024-03-08T08:25:30;36.50;;;16.90;;
76552;SDS011;65395;53.168;18.156;2024-03-08T08:28:00;32.90;;;16.10;;
76552;SDS011;65395;53.168;18.156;2024-03-08T08:30:30;37.70;;;18.50;;
76552;SDS011;65395;53.168;18.156;2024-03-08T08:32:59;37.20;;;17.70;;
76552;SDS011;65395;53.168;18.156;2024-03-08T08:35:27;39.50;;;17.50;;
76552;SDS011;65395;53.168;18.156;2024-03-08T08:37:55;37.10;;;16.70;;
76552;SDS011;65395;53.168;18.156;2024-03-08T08:40:22;44.50;;;18.20;;
76552;SDS011;65395;53.168;18.156;2024-03-08T08:42:49;44.90;;;18.50;;
76552;SDS011;65395;53.168;18.156;2024-03-08T08:45:16;38.30;;;17.30;;
76552;SDS011;65395;53.168;18.156;2024-03-08T08:47:44;38.50;;;16.70;;
76552;SDS011;65395;53.168;18.156;2024-03-08T08:50:11;37.60;;;17.10;;
76552;SDS011;65395;53.168;18.156;2024-03-08T08:52:39;40.70;;;18.40;;
76552;SDS011;65395;53.168;18.156;2024-03-08T08:55:06;39.70;;;18.90;;
76552;SDS011;65395;53.168;18.156;2024-03-08T08:57:33;43.50;;;20.20;;
76552;SDS011;65395;53.168;18.156;2024-03-08T08:59:59;41.60;;;18.50;;
76552;SDS011;65395;53.168;18.156;2024-03-08T09:02:27;43.40;;;18.00;;
76552;SDS011;65395;53.168;18.156;2024-03-08T09:04:54;36.80;;;17.20;;
76552;SDS011;65395;53.168;18.156;2024-03-08T09:07:21;38.70;;;17.90;;
76552;SDS011;65395;53.168;18.156;2024-03-08T09:09:48;39.10;;;18.70;;
76552;SDS011;65395;53.168;18.156;2024-03-08T09:12:15;40.10;;;18.50;;
76552;SDS011;65395;53.168;18.156;2024-03-08T09:14:42;40.50;;;18.40;;
76552;SDS011;65395;53.168;18.156;2024-03-08T09:17:09;40.30;;;18.30;;
76552;SDS011;65395;53.168;18.156;2024-03-08T09:19:36;41.40;;;18.80;;
76552;SDS011;65395;53.168;18.156;2024-03-08T09:22:03;38.70;;;17.30;;
76552;SDS011;65395;53.168;18.156;2024-03-08T09:24:30;34.80;;;16.70;;
76552;SDS011;65395;53.168;18.156;2024-03-08T09:26:57;35.30;;;17.40;;
76552;SDS011;65395;53.168;18.156;2024-03-08T09:29:25;34.10;;;16.50;;
76552;SDS011;65395;53.168;18.156;2024-03-08T09:31:52;35.90;;;16.50;;
76552;SDS011;65395;53.168;18.156;2024-03-08T09:34:19;34.70;;;15.00;;
76552;SDS011;65395;53.168;18.156;2024-03-08T09:36:46;31.00;;;15.20;;
76552;SDS011;65395;53.168;18.156;2024-03-08T09:39:13;33.40;;;17.10;;
76552;SDS011;65395;53.168;18.156;2024-03-08T09:41:43;33.80;;;15.70;;
76552;SDS011;65395;53.168;18.156;2024-03-08T09:44:10;31.00;;;15.30;;
76552;SDS011;65395;53.168;18.156;2024-03-08T09:46:38;34.80;;;15.90;;
76552;SDS011;65395;53.168;18.156;2024-03-08T09:49:06;34.10;;;14.90;;
76552;SDS011;65395;53.168;18.156;2024-03-08T09:51:34;33.50;;;15.60;;
76552;SDS011;65395;53.168;18.156;2024-03-08T09:54:02;33.50;;;15.90;;
76552;SDS011;65395;53.168;18.156;2024-03-08T09:56:32;30.30;;;15.20;;
76552;SDS011;65395;53.168;18.156;2024-03-08T09:59:00;29.40;;;14.40;;
76552;SDS011;65395;53.168;18.156;2024-03-08T10:01:47;27.20;;;14.20;;
76552;SDS011;65395;53.168;18.156;2024-03-08T10:04:14;30.70;;;15.10;;
76552;SDS011;65395;53.168;18.156;2024-03-08T10:06:41;32.90;;;15.20;;
76552;SDS011;65395;53.168;18.156;2024-03-08T10:09:08;30.70;;;14.50;;
76552;SDS011;65395;53.168;18.156;2024-03-08T10:11:36;28.10;;;14.00;;
76552;SDS011;65395;53.168;18.156;2024-03-08T10:14:03;29.40;;;14.00;;
76552;SDS011;65395;53.168;18.156;2024-03-08T10:16:32;30.90;;;15.40;;
76552;SDS011;65395;53.168;18.156;2024-03-08T10:19:00;29.80;;;15.10;;
76552;SDS011;65395;53.168;18.156;2024-03-08T10:21:27;29.20;;;14.00;;
76552;SDS011;65395;53.168;18.156;2024-03-08T10:23:55;28.10;;;13.50;;
76552;SDS011;65395;53.168;18.156;2024-03-08T10:26:22;28.50;;;14.10;;
76552;SDS011;65395;53.168;18.156;2024-03-08T10:28:50;26.50;;;13.00;;
76552;SDS011;65395;53.168;18.156;2024-03-08T10:31:19;29.00;;;13.60;;
76552;SDS011;65395;53.168;18.156;2024-03-08T10:33:47;27.00;;;11.90;;
76552;SDS011;65395;53.168;18.156;2024-03-08T10:36:14;24.80;;;11.70;;
76552;SDS011;65395;53.168;18.156;2024-03-08T10:38:42;27.50;;;12.10;;
76552;SDS011;65395;53.168;18.156;2024-03-08T10:41:13;25.20;;;12.00;;
76552;SDS011;65395;53.168;18.156;2024-03-08T10:49:32;20.00;;;10.20;;
76552;SDS011;65395;53.168;18.156;2024-03-08T10:52:05;20.80;;;10.40;;
76552;SDS011;65395;53.168;18.156;2024-03-08T10:54:36;20.80;;;9.90;;
76552;SDS011;65395;53.168;18.156;2024-03-08T10:57:05;20.60;;;10.10;;
76552;SDS011;65395;53.168;18.156;2024-03-08T10:59:32;20.60;;;11.00;;
76552;SDS011;65395;53.168;18.156;2024-03-08T11:02:00;24.70;;;11.70;;
76552;SDS011;65395;53.168;18.156;2024-03-08T11:04:27;21.60;;;9.80;;
76552;SDS011;65395;53.168;18.156;2024-03-08T11:07:02;18.00;;;10.00;;
76552;SDS011;65395;53.168;18.156;2024-03-08T11:09:36;23.60;;;10.00;;
76552;SDS011;65395;53.168;18.156;2024-03-08T11:14:46;13.10;;;6.70;;
76552;SDS011;65395;53.168;18.156;2024-03-08T11:17:16;16.70;;;8.40;;
76552;SDS011;65395;53.168;18.156;2024-03-08T11:19:49;19.70;;;8.70;;
76552;SDS011;65395;53.168;18.156;2024-03-08T11:22:22;17.20;;;8.80;;
76552;SDS011;65395;53.168;18.156;2024-03-08T11:24:50;16.70;;;8.80;;
76552;SDS011;65395;53.168;18.156;2024-03-08T11:27:17;20.60;;;9.70;;
76552;SDS011;65395;53.168;18.156;2024-03-08T11:29:44;20.70;;;10.00;;
76552;SDS011;65395;53.168;18.156;2024-03-08T11:32:11;21.50;;;10.80;;
76552;SDS011;65395;53.168;18.156;2024-03-08T11:34:42;19.30;;;9.90;;
76552;SDS011;65395;53.168;18.156;2024-03-08T11:37:12;23.30;;;10.70;;
76552;SDS011;65395;53.168;18.156;2024-03-08T11:39:49;23.40;;;10.60;;
76552;SDS011;65395;53.168;18.156;2024-03-08T11:42:18;20.80;;;11.60;;
76552;SDS011;65395;53.168;18.156;2024-03-08T11:44:46;24.70;;;12.00;;
76552;SDS011;65395;53.168;18.156;2024-03-08T11:47:14;25.50;;;11.90;;
76552;SDS011;65395;53.168;18.156;2024-03-08T11:49:42;19.90;;;11.00;;
76552;SDS011;65395;53.168;18.156;2024-03-08T11:52:11;20.50;;;10.90;;
76552;SDS011;65395;53.168;18.156;2024-03-08T11:54:40;21.80;;;11.00;;
76552;SDS011;65395;53.168;18.156;2024-03-08T11:57:08;21.60;;;11.30;;
76552;SDS011;65395;53.168;18.156;2024-03-08T11:59:36;23.90;;;11.50;;
76552;SDS011;65395;53.168;18.156;2024-03-08T12:02:04;22.30;;;11.80;;
76552;SDS011;65395;53.168;18.156;2024-03-08T12:04:32;22.10;;;11.30;;
76552;SDS011;65395;53.168;18.156;2024-03-08T12:06:59;23.20;;;12.20;;
76552;SDS011;65395;53.168;18.156;2024-03-08T12:09:28;20.80;;;11.50;;
76552;SDS011;65395;53.168;18.156;2024-03-08T12:11:55;23.80;;;12.70;;
76552;SDS011;65395;53.168;18.156;2024-03-08T12:14:25;21.60;;;11.70;;
76552;SDS011;65395;53.168;18.156;2024-03-08T12:16:52;22.50;;;11.60;;
76552;SDS011;65395;53.168;18.156;2024-03-08T12:19:19;22.60;;;11.70;;
76552;SDS011;65395;53.168;18.156;2024-03-08T12:21:46;23.20;;;13.00;;
76552;SDS011;65395;53.168;18.156;2024-03-08T12:24:16;25.20;;;11.60;;
76552;SDS011;65395;53.168;18.156;2024-03-08T12:26:47;26.40;;;13.00;;
76552;SDS011;65395;53.168;18.156;2024-03-08T12:29:15;24.50;;;11.90;;
76552;SDS011;65395;53.168;18.156;2024-03-08T12:31:46;23.80;;;12.20;;
76552;SDS011;65395;53.168;18.156;2024-03-08T12:34:17;25.80;;;12.80;;
76552;SDS011;65395;53.168;18.156;2024-03-08T12:36:45;23.00;;;12.50;;
76552;SDS011;65395;53.168;18.156;2024-03-08T12:39:17;23.90;;;12.80;;
76552;SDS011;65395;53.168;18.156;2024-03-08T12:41:49;25.90;;;13.40;;
76552;SDS011;65395;53.168;18.156;2024-03-08T12:44:18;26.60;;;13.00;;
76552;SDS011;65395;53.168;18.156;2024-03-08T12:46:47;24.50;;;13.10;;
76552;SDS011;65395;53.168;18.156;2024-03-08T12:49:14;27.30;;;13.50;;
76552;SDS011;65395;53.168;18.156;2024-03-08T12:51:44;26.80;;;13.00;;
76552;SDS011;65395;53.168;18.156;2024-03-08T12:54:11;23.80;;;12.10;;
76552;SDS011;65395;53.168;18.156;2024-03-08T12:56:39;20.30;;;11.60;;
76552;SDS011;65395;53.168;18.156;2024-03-08T12:59:07;21.90;;;12.50;;
76552;SDS011;65395;53.168;18.156;2024-03-08T13:01:35;24.20;;;13.10;;
76552;SDS011;65395;53.168;18.156;2024-03-08T13:04:05;21.00;;;11.70;;
76552;SDS011;65395;53.168;18.156;2024-03-08T13:06:35;22.90;;;12.80;;
76552;SDS011;65395;53.168;18.156;2024-03-08T13:09:02;22.90;;;11.70;;
76552;SDS011;65395;53.168;18.156;2024-03-08T13:11:32;19.70;;;11.70;;
76552;SDS011;65395;53.168;18.156;2024-03-08T13:14:03;21.40;;;11.30;;
76552;SDS011;65395;53.168;18.156;2024-03-08T13:16:31;20.50;;;11.50;;
76552;SDS011;65395;53.168;18.156;2024-03-08T13:18:59;19.60;;;11.90;;
76552;SDS011;65395;53.168;18.156;2024-03-08T13:21:26;21.40;;;11.60;;
76552;SDS011;65395;53.168;18.156;2024-03-08T13:23:53;22.70;;;11.90;;
76552;SDS011;65395;53.168;18.156;2024-03-08T13:26:21;19.60;;;11.20;;
76552;SDS011;65395;53.168;18.156;2024-03-08T13:28:48;20.10;;;11.20;;
76552;SDS011;65395;53.168;18.156;2024-03-08T13:31:20;23.20;;;11.40;;
76552;SDS011;65395;53.168;18.156;2024-03-08T13:33:47;20.00;;;11.10;;
76552;SDS011;65395;53.168;18.156;2024-03-08T13:36:14;20.40;;;11.90;;
76552;SDS011;65395;53.168;18.156;2024-03-08T13:38:48;18.30;;;11.30;;
76552;SDS011;65395;53.168;18.156;2024-03-08T13:41:15;19.50;;;11.40;;
76552;SDS011;65395;53.168;18.156;2024-03-08T13:43:46;20.70;;;10.90;;
76552;SDS011;65395;53.168;18.156;2024-03-08T13:46:17;20.80;;;11.60;;
76552;SDS011;65395;53.168;18.156;2024-03-08T13:48:44;18.90;;;11.10;;
76552;SDS011;65395;53.168;18.156;2024-03-08T13:51:11;21.00;;;10.50;;
76552;SDS011;65395;53.168;18.156;2024-03-08T13:53:41;20.90;;;11.10;;
76552;SDS011;65395;53.168;18.156;2024-03-08T13:56:08;23.30;;;11.30;;
76552;SDS011;65395;53.168;18.156;2024-03-08T13:58:37;19.60;;;10.70;;
76552;SDS011;65395;53.168;18.156;2024-03-08T14:01:06;20.70;;;11.10;;
76552;SDS011;65395;53.168;18.156;2024-03-08T14:03:37;19.30;;;9.50;;
76552;SDS011;65395;53.168;18.156;2024-03-08T14:06:08;17.30;;;10.50;;
76552;SDS011;65395;53.168;18.156;2024-03-08T14:08:36;24.70;;;10.50;;
76552;SDS011;65395;53.168;18.156;2024-03-08T14:11:04;17.10;;;9.50;;
76552;SDS011;65395;53.168;18.156;2024-03-08T14:13:42;17.10;;;9.90;;
76552;SDS011;65395;53.168;18.156;2024-03-08T14:16:12;24.80;;;10.50;;
76552;SDS011;65395;53.168;18.156;2024-03-08T14:18:39;24.00;;;10.20;;
76552;SDS011;65395;53.168;18.156;2024-03-08T14:21:06;19.80;;;9.70;;
76552;SDS011;65395;53.168;18.156;2024-03-08T14:23:35;16.10;;;9.20;;
76552;SDS011;65395;53.168;18.156;2024-03-08T14:26:03;15.90;;;9.30;;